createdAt,value
2022-11-03T00:01:51.507Z,31.25
2022-11-03T00:06:43.189Z,30.50
2022-11-03T00:09:15.151Z,29.50
2022-11-03T00:11:47.686Z,31.00
2022-11-03T00:14:18.946Z,34.00
2022-11-03T00:16:49.758Z,34.00
2022-11-03T00:19:22.798Z,32.00
2022-11-03T00:21:53.322Z,31.25
2022-11-03T00:24:23.921Z,33.50
2022-11-03T00:26:55.188Z,31.25
2022-11-03T00:29:25.533Z,32.25
2022-11-03T00:31:56.041Z,29.00
2022-11-03T00:34:26.587Z,31.50
2022-11-03T00:36:58.230Z,30.75
2022-11-03T00:39:28.741Z,33.00
2022-11-03T00:41:59.002Z,24.50
2022-11-03T00:44:29.504Z,31.25
2022-11-03T00:47:01.164Z,33.75
2022-11-03T00:49:31.554Z,31.25
2022-11-03T00:52:03.125Z,33.00
2022-11-03T00:54:33.878Z,32.00
2022-11-03T00:57:04.284Z,31.75
2022-11-03T00:59:34.932Z,33.25
2022-11-03T01:02:05.482Z,32.50
2022-11-03T01:04:35.854Z,34.75
2022-11-03T01:07:06.747Z,31.25
2022-11-03T01:09:41.622Z,29.75
2022-11-03T01:12:17.832Z,32.75
2022-11-03T01:14:53.529Z,29.75
2022-11-03T01:17:28.437Z,34.50
2022-11-03T01:19:58.722Z,34.00
2022-11-03T01:22:28.947Z,34.00
2022-11-03T01:24:59.622Z,33.25
2022-11-03T01:27:30.260Z,34.25
2022-11-03T01:30:00.644Z,29.00
2022-11-03T01:32:31.282Z,31.75
2022-11-03T01:35:01.543Z,32.50
2022-11-03T01:37:34.135Z,29.50
2022-11-03T01:40:04.593Z,30.25
2022-11-03T01:42:36.606Z,34.00
2022-11-03T01:45:07.305Z,32.25
2022-11-03T01:47:39.691Z,32.25
2022-11-03T01:50:13.280Z,34.00
2022-11-03T01:52:50.784Z,32.25
2022-11-03T01:55:23.971Z,31.00
2022-11-03T01:58:21.524Z,28.50
2022-11-03T02:01:13.103Z,34.00
2022-11-03T02:03:55.537Z,33.25
2022-11-03T02:06:28.324Z,33.50
2022-11-03T02:09:07.672Z,31.25
2022-11-03T02:11:38.982Z,30.25
2022-11-03T02:14:16.639Z,30.50
2022-11-03T02:16:49.799Z,33.75
2022-11-03T02:19:28.767Z,31.75
2022-11-03T02:22:25.558Z,29.25
2022-11-03T02:25:22.358Z,33.75
2022-11-03T02:27:52.980Z,34.00
2022-11-03T02:30:23.373Z,32.75
2022-11-03T02:32:58.159Z,33.25
2022-11-03T02:35:42.870Z,31.50
2022-11-03T02:38:16.396Z,33.75
2022-11-03T02:40:49.696Z,33.50
2022-11-03T02:43:22.533Z,34.25
2022-11-03T02:45:55.657Z,34.00
2022-11-03T02:48:26.375Z,34.25
2022-11-03T02:50:56.609Z,33.25
2022-11-03T02:53:30.826Z,34.00
2022-11-03T02:56:07.735Z,34.00
2022-11-03T02:59:13.646Z,32.25
2022-11-03T03:01:50.483Z,33.75
2022-11-03T03:04:44.483Z,33.75
2022-11-03T03:07:41.445Z,32.25
2022-11-03T03:10:20.471Z,33.75
2022-11-03T03:12:56.808Z,34.00
2022-11-03T03:15:47.932Z,32.25
2022-11-03T03:18:32.990Z,31.50
2022-11-03T03:21:15.295Z,32.00
2022-11-03T03:24:00.207Z,34.00
2022-11-03T03:26:36.470Z,31.75
2022-11-03T03:29:24.730Z,30.25
2022-11-03T03:31:57.986Z,0.00
2022-11-03T03:34:35.029Z,30.25
2022-11-03T03:37:07.455Z,31.00
2022-11-03T03:39:42.333Z,30.75
2022-11-03T03:42:15.214Z,31.00
2022-11-03T03:44:49.877Z,33.75
2022-11-03T03:50:22.541Z,32.25
2022-11-03T03:53:05.387Z,31.50
2022-11-03T03:55:41.513Z,34.00
2022-11-03T03:58:14.370Z,33.25
2022-11-03T04:00:45.323Z,32.75
2022-11-03T04:03:21.278Z,31.50
2022-11-03T04:05:53.672Z,30.00
2022-11-03T04:08:26.882Z,32.25
2022-11-03T04:10:57.210Z,31.00
2022-11-03T04:13:27.465Z,30.75
2022-11-03T04:15:59.666Z,29.00
2022-11-03T04:18:30.575Z,29.50
2022-11-03T04:21:01.323Z,27.50
2022-11-03T04:23:32.008Z,23.25
2022-11-03T04:26:02.422Z,26.75
2022-11-03T04:28:33.120Z,19.00
2022-11-03T04:31:05.739Z,25.00
2022-11-03T04:33:37.109Z,25.75
2022-11-03T04:36:13.547Z,24.75
2022-11-03T04:38:45.410Z,27.00
2022-11-03T04:41:27.666Z,22.25
2022-11-03T04:43:58.624Z,27.00
2022-11-03T04:46:31.386Z,29.25
2022-11-03T04:49:04.368Z,28.50
2022-11-03T04:51:35.873Z,29.75
2022-11-03T04:54:09.186Z,24.75
2022-11-03T04:56:41.436Z,27.75
2022-11-03T04:59:14.382Z,30.00
2022-11-03T05:01:55.725Z,27.25
2022-11-03T05:04:22.193Z,29.75
2022-11-03T05:06:54.203Z,26.00
2022-11-03T05:09:30.094Z,28.00
2022-11-03T05:12:03.095Z,26.75
2022-11-03T05:14:34.252Z,26.75
2022-11-03T05:17:13.440Z,25.50
2022-11-03T05:20:04.912Z,27.00
2022-11-03T05:22:37.772Z,25.25
2022-11-03T05:25:29.036Z,27.00
2022-11-03T05:28:06.754Z,27.00
2022-11-03T05:33:36.941Z,26.75
2022-11-03T05:36:10.452Z,27.25
2022-11-03T05:38:41.653Z,27.00
2022-11-03T05:41:23.827Z,28.25
2022-11-03T05:44:03.241Z,27.00
2022-11-03T05:46:35.572Z,30.25
2022-11-03T05:49:07.937Z,31.00
2022-11-03T05:51:41.345Z,28.25
2022-11-03T05:54:26.321Z,28.25
2022-11-03T05:57:09.797Z,27.50
2022-11-03T05:59:40.074Z,26.25
2022-11-03T06:02:31.456Z,31.00
2022-11-03T06:05:03.508Z,30.50
2022-11-03T06:07:35.591Z,30.75
2022-11-03T06:10:17.817Z,28.75
2022-11-03T06:12:48.146Z,27.00
2022-11-03T06:15:28.347Z,29.00
2022-11-03T06:18:17.346Z,28.00
2022-11-03T06:20:58.714Z,27.25
2022-11-03T06:23:32.127Z,29.25
2022-11-03T06:26:04.501Z,28.50
2022-11-03T06:28:42.201Z,28.25
2022-11-03T06:31:28.411Z,28.25
2022-11-03T06:34:00.981Z,21.75
2022-11-03T06:36:34.777Z,28.25
2022-11-03T06:39:16.346Z,29.00
2022-11-03T06:41:48.832Z,28.00
2022-11-03T06:44:29.376Z,30.25
2022-11-03T06:47:05.613Z,30.00
2022-11-03T06:49:38.138Z,29.50
2022-11-03T06:58:25.665Z,34.75
2022-11-03T07:06:56.822Z,33.75
2022-11-03T07:08:44.677Z,35.00
2022-11-03T07:24:44.174Z,30.25
2022-11-03T07:24:50.895Z,27.25
2022-11-03T07:27:34.598Z,30.25
2022-11-03T07:30:22.770Z,30.25
2022-11-03T07:32:59.757Z,27.75
2022-11-03T07:35:53.667Z,29.00
2022-11-03T07:41:28.124Z,30.00
2022-11-03T07:44:04.579Z,31.00
2022-11-03T07:46:35.555Z,29.00
2022-11-03T07:49:13.233Z,27.25
2022-11-03T07:51:47.833Z,30.25
2022-11-03T07:54:32.850Z,24.75
2022-11-03T07:57:15.346Z,23.50
2022-11-03T07:59:48.531Z,24.50
2022-11-03T08:02:43.516Z,22.75
2022-11-03T08:05:14.013Z,24.75
2022-11-03T08:07:46.958Z,24.00
2022-11-03T08:10:27.411Z,21.00
2022-11-03T08:12:57.930Z,23.50
2022-11-03T08:15:30.605Z,21.75
2022-11-03T08:18:05.717Z,21.25
2022-11-03T08:20:40.174Z,22.50
2022-11-03T08:23:25.313Z,20.25
2022-11-03T08:25:47.655Z,24.00
2022-11-03T08:28:27.057Z,19.50
2022-11-03T08:31:00.890Z,24.00
2022-11-03T08:36:01.499Z,20.75
2022-11-03T08:38:32.357Z,18.75
2022-11-03T08:41:02.727Z,14.75
2022-11-03T08:43:34.603Z,16.75
2022-11-03T08:46:15.426Z,15.75
2022-11-03T08:48:37.919Z,14.75
2022-11-03T08:51:09.765Z,17.00
2022-11-03T08:53:46.681Z,19.00
2022-11-03T08:56:22.613Z,15.25
2022-11-03T08:58:53.657Z,18.00
2022-11-03T09:01:25.436Z,17.25
2022-11-03T09:03:56.592Z,18.25
2022-11-03T09:06:29.219Z,17.00
2022-11-03T09:11:36.267Z,18.50
2022-11-03T09:14:06.514Z,17.25
2022-11-03T09:16:37.082Z,16.75
2022-11-03T09:19:08.131Z,18.00
2022-11-03T09:21:38.573Z,18.25
2022-11-03T09:24:10.871Z,20.00
2022-11-03T09:26:42.643Z,20.00
2022-11-03T09:29:13.235Z,13.25
2022-11-03T09:31:45.173Z,14.00
2022-11-03T09:34:18.209Z,11.50
2022-11-03T09:36:53.206Z,13.00
2022-11-03T09:39:21.169Z,14.00
2022-11-03T09:41:58.743Z,10.75
2022-11-03T09:44:41.525Z,7.50
2022-11-03T09:47:13.619Z,10.75
2022-11-03T09:49:45.228Z,10.75
2022-11-03T09:52:19.748Z,9.00
2022-11-03T09:54:54.642Z,10.25
2022-11-03T09:57:28.115Z,11.25
2022-11-03T10:00:01.398Z,10.75
2022-11-03T10:02:37.571Z,9.50
2022-11-03T10:08:06.033Z,8.50
2022-11-03T10:10:37.131Z,6.25
2022-11-03T10:13:09.855Z,8.25
2022-11-03T10:15:43.561Z,10.00
2022-11-03T10:21:09.116Z,8.00
2022-11-03T10:23:41.123Z,8.00
2022-11-03T10:26:18.274Z,8.50
2022-11-03T10:29:03.722Z,6.00
2022-11-03T10:31:40.508Z,9.00
2022-11-03T10:34:35.243Z,8.25
2022-11-03T10:37:33.588Z,8.25
2022-11-03T10:40:22.380Z,8.00
2022-11-03T10:42:46.611Z,9.25
2022-11-03T10:45:19.836Z,8.00
2022-11-03T10:48:11.387Z,8.00
2022-11-03T10:50:42.140Z,8.50
2022-11-03T10:53:16.069Z,15.75
2022-11-03T10:55:49.595Z,8.00
2022-11-03T10:58:20.451Z,7.75
2022-11-03T11:00:51.724Z,7.25
2022-11-03T11:03:23.588Z,10.50
2022-11-03T11:05:53.913Z,9.50
2022-11-03T11:08:24.720Z,7.25
2022-11-03T11:10:55.798Z,7.00
2022-11-03T11:13:28.398Z,8.75
2022-11-03T11:16:01.571Z,4.00
2022-11-03T11:18:35.892Z,3.75
2022-11-03T11:21:19.647Z,5.25
2022-11-03T11:23:53.139Z,6.00
2022-11-03T11:26:32.446Z,3.25
2022-11-03T11:29:14.693Z,6.00
2022-11-03T11:31:57.770Z,6.75
2022-11-03T11:34:45.046Z,6.25
2022-11-03T11:37:32.607Z,7.00
2022-11-03T11:40:01.521Z,8.50
2022-11-03T11:42:37.902Z,8.75
2022-11-03T11:45:19.299Z,8.25
2022-11-03T11:47:48.659Z,9.00
2022-11-03T11:50:25.989Z,8.25
2022-11-03T11:53:10.829Z,10.25
2022-11-03T11:56:01.841Z,10.25
2022-11-03T11:58:50.009Z,7.50
2022-11-03T12:01:24.193Z,11.50
2022-11-03T12:03:58.518Z,10.25
2022-11-03T12:06:40.515Z,11.25
2022-11-03T12:09:22.561Z,9.00
2022-11-03T12:11:57.262Z,2.00
2022-11-03T12:14:31.458Z,10.75
2022-11-03T12:17:20.577Z,10.25
2022-11-03T12:19:54.794Z,13.00
2022-11-03T12:22:32.724Z,12.00
2022-11-03T12:25:04.297Z,11.75
2022-11-03T12:27:38.159Z,7.25
2022-11-03T12:30:19.814Z,11.50
2022-11-03T12:33:05.008Z,8.75
2022-11-03T12:35:52.932Z,11.00
2022-11-03T12:41:42.040Z,13.00
2022-11-03T12:44:13.459Z,11.25
2022-11-03T12:46:46.310Z,13.00
2022-11-03T12:49:18.875Z,14.00
2022-11-03T12:51:49.294Z,8.25
2022-11-03T12:54:21.266Z,12.75
2022-11-03T12:56:54.293Z,14.00
2022-11-03T12:59:28.699Z,14.50
2022-11-03T13:02:02.242Z,13.00
2022-11-03T13:04:37.845Z,15.00
2022-11-03T13:07:09.751Z,12.75
2022-11-03T13:09:48.807Z,15.75
2022-11-03T13:12:27.873Z,11.75
2022-11-03T13:15:03.115Z,16.00
2022-11-03T13:17:59.687Z,16.75
2022-11-03T13:22:46.777Z,16.75
2022-11-03T13:25:17.316Z,18.25
2022-11-03T13:27:47.641Z,16.00
2022-11-03T13:30:19.268Z,16.00
2022-11-03T13:32:50.001Z,17.25
2022-11-03T13:35:20.853Z,19.50
2022-11-03T13:37:51.299Z,16.25
2022-11-03T13:42:53.861Z,8.50
2022-11-03T13:45:24.783Z,15.25
2022-11-03T13:48:37.540Z,15.50
2022-11-03T13:50:31.705Z,11.25
2022-11-03T13:55:42.997Z,22.25
2022-11-03T14:00:47.655Z,22.75
2022-11-03T14:05:51.755Z,22.00
2022-11-03T14:08:22.024Z,18.25
2022-11-03T14:10:52.405Z,24.50
2022-11-03T14:13:23.364Z,23.50
2022-11-03T14:15:53.948Z,25.25
2022-11-03T14:18:24.582Z,20.50
2022-11-03T14:20:55.304Z,27.00
2022-11-03T14:23:28.735Z,26.00
2022-11-03T14:26:13.240Z,24.25
2022-11-03T14:28:32.692Z,22.25
2022-11-03T14:31:10.427Z,27.00
2022-11-03T14:33:45.771Z,22.75
2022-11-03T14:36:22.377Z,26.00
2022-11-03T14:38:56.062Z,28.75
2022-11-03T14:41:30.383Z,27.50
2022-11-03T14:44:39.072Z,29.00
2022-11-03T14:46:59.464Z,27.00
2022-11-03T14:49:43.673Z,28.50
2022-11-03T14:52:14.880Z,29.25
2022-11-03T14:54:51.769Z,28.00
2022-11-03T14:57:32.064Z,29.00
2022-11-03T15:03:39.419Z,25.25
2022-11-03T15:06:17.463Z,30.50
2022-11-03T15:08:45.601Z,30.75
2022-11-03T15:11:32.731Z,28.75
2022-11-03T15:13:53.937Z,31.25
2022-11-03T15:19:24.395Z,29.75
2022-11-03T15:25:27.212Z,30.25
2022-11-03T15:28:01.808Z,31.25
2022-11-03T15:30:53.054Z,29.25
2022-11-03T15:33:23.722Z,32.00
2022-11-03T15:37:36.902Z,29.75
2022-11-03T15:38:35.995Z,32.00
2022-11-03T15:41:19.072Z,43.33
2022-11-03T15:43:52.705Z,22.25
2022-11-03T15:46:33.596Z,27.50
2022-11-03T15:49:04.217Z,27.50
2022-11-03T15:51:52.979Z,23.75
2022-11-03T15:54:14.830Z,28.75
2022-11-03T15:56:46.764Z,28.75
2022-11-03T15:59:39.307Z,19.50
2022-11-03T16:25:25.608Z,26.50
2022-11-03T16:28:27.550Z,27.50
2022-11-03T16:53:36.288Z,22.75
2022-11-03T16:56:09.695Z,22.75
2022-11-03T16:58:41.502Z,20.50
2022-11-03T17:01:14.325Z,22.00
2022-11-03T17:04:01.840Z,18.00
2022-11-03T17:25:08.202Z,9.50
2022-11-03T17:28:37.528Z,6.00
2022-11-03T17:31:21.643Z,5.75
2022-11-03T17:33:57.812Z,4.50
2022-11-03T17:36:32.411Z,4.00
2022-11-03T17:39:05.687Z,4.00
2022-11-03T17:41:58.911Z,2.75
2022-11-03T17:44:30.250Z,4.00
2022-11-03T17:47:04.836Z,3.00
2022-11-03T17:49:40.474Z,2.50
2022-11-03T17:52:30.227Z,3.50
2022-11-03T17:55:04.211Z,3.00
2022-11-03T17:57:36.829Z,4.00
2022-11-03T18:00:13.473Z,1.50
2022-11-03T18:02:57.864Z,3.50
2022-11-03T18:05:35.722Z,3.00
2022-11-03T18:08:12.544Z,3.50
2022-11-03T18:32:21.577Z,7.00
2022-11-03T18:39:47.607Z,5.25
2022-11-03T18:42:27.109Z,6.25
2022-11-03T18:45:19.074Z,7.00
2022-11-03T18:47:53.504Z,8.00
2022-11-03T18:50:45.371Z,8.00
2022-11-03T18:53:19.237Z,10.50
2022-11-03T18:55:56.561Z,9.75
2022-11-03T18:58:32.170Z,11.50
2022-11-03T19:01:03.517Z,9.00
2022-11-03T19:03:37.171Z,11.00
2022-11-03T19:06:09.197Z,10.75
2022-11-03T19:12:03.437Z,10.00
2022-11-03T19:14:50.956Z,12.00
2022-11-03T19:17:24.913Z,7.00
2022-11-03T19:19:55.663Z,13.75
2022-11-03T19:24:08.571Z,8.00
2022-11-03T19:25:11.026Z,6.00
2022-11-03T19:30:38.311Z,9.25
2022-11-03T19:33:14.491Z,5.50
2022-11-03T19:35:45.445Z,4.75
2022-11-03T19:38:26.852Z,5.25
2022-11-03T19:40:56.911Z,5.50
2022-11-03T19:43:33.322Z,4.25
2022-11-03T19:46:01.483Z,4.75
2022-11-03T19:48:35.420Z,4.00
2022-11-03T19:51:06.863Z,4.00
2022-11-03T19:53:44.471Z,4.00
2022-11-03T19:56:13.335Z,4.00
2022-11-03T19:58:43.780Z,3.00
2022-11-03T20:01:14.212Z,4.00
2022-11-03T20:03:45.770Z,3.75
2022-11-03T20:06:24.682Z,3.75
2022-11-03T20:08:59.162Z,3.50
2022-11-03T20:11:29.832Z,4.00
2022-11-03T20:14:01.153Z,4.25
2022-11-03T20:16:34.843Z,4.00
2022-11-03T20:19:08.207Z,5.75
2022-11-03T20:21:40.552Z,6.00
2022-11-03T20:24:15.896Z,5.50
2022-11-03T20:26:47.376Z,5.00
2022-11-03T20:29:18.691Z,6.50
2022-11-03T20:31:49.459Z,6.25
2022-11-03T20:34:19.963Z,5.75
2022-11-03T20:42:43.641Z,5.50
2022-11-03T20:45:17.147Z,5.50
2022-11-03T20:47:48.529Z,5.25
2022-11-03T20:50:20.724Z,5.50
2022-11-03T20:52:53.137Z,5.50
2022-11-03T20:55:34.119Z,8.00
2022-11-03T20:58:09.509Z,4.00
2022-11-03T21:00:42.818Z,4.00
2022-11-03T21:03:53.483Z,8.00
2022-11-03T21:06:00.263Z,6.25
2022-11-03T21:08:32.909Z,5.50
2022-11-03T21:11:05.311Z,8.75
2022-11-03T21:13:38.819Z,8.25
2022-11-03T21:16:23.951Z,8.75
2022-11-03T21:18:44.544Z,7.50
2022-11-03T21:21:20.722Z,9.50
2022-11-03T21:23:48.691Z,9.00
2022-11-03T21:26:19.375Z,10.00
2022-11-03T21:28:50.519Z,10.75
2022-11-03T21:31:21.187Z,10.00
2022-11-03T21:33:53.035Z,11.00
2022-11-03T21:36:24.206Z,12.25
2022-11-03T21:38:57.025Z,14.00
2022-11-03T21:41:28.980Z,12.00
2022-11-03T21:44:00.373Z,16.25
2022-11-03T21:46:30.845Z,12.50
2022-11-03T21:49:02.701Z,13.75
2022-11-03T21:51:33.286Z,14.75
2022-11-03T21:54:03.679Z,10.00
2022-11-03T21:56:34.609Z,16.00
2022-11-03T21:59:06.876Z,16.25
2022-11-03T22:01:41.006Z,13.50
2022-11-03T22:04:13.592Z,17.75
2022-11-03T22:06:44.022Z,18.50
2022-11-03T22:12:09.944Z,14.50
2022-11-03T22:14:40.566Z,17.75
2022-11-03T22:17:14.622Z,17.00
2022-11-03T22:19:47.016Z,11.75
2022-11-03T22:22:17.295Z,18.50
2022-11-03T22:24:48.350Z,20.50
2022-11-03T22:27:18.671Z,16.50
2022-11-03T22:29:51.578Z,18.25
2022-11-03T22:32:23.281Z,18.75
2022-11-03T22:34:57.311Z,17.25
2022-11-03T22:39:59.888Z,17.00
2022-11-03T22:42:32.869Z,18.00
2022-11-03T22:45:03.162Z,13.75
2022-11-03T22:47:34.105Z,18.25
2022-11-03T22:50:05.568Z,17.00
2022-11-03T22:52:38.685Z,20.25
2022-11-03T22:55:10.473Z,17.50
2022-11-03T22:57:40.784Z,18.75
2022-11-03T23:00:15.447Z,15.00
2022-11-03T23:02:45.890Z,18.75
2022-11-03T23:05:16.180Z,17.50
2022-11-03T23:07:46.870Z,19.75
2022-11-03T23:10:17.256Z,17.50
2022-11-03T23:12:50.787Z,14.25
2022-11-03T23:15:22.495Z,15.00
2022-11-03T23:17:53.367Z,14.50
2022-11-03T23:20:23.658Z,14.50
2022-11-03T23:22:54.187Z,15.25
2022-11-03T23:25:24.536Z,13.25
2022-11-03T23:27:55.323Z,15.50
2022-11-03T23:30:25.459Z,15.75
2022-11-03T23:32:55.588Z,16.00
2022-11-03T23:35:27.164Z,16.50
2022-11-03T23:37:59.107Z,14.75
2022-11-03T23:40:32.064Z,16.00
2022-11-03T23:43:03.500Z,15.50
2022-11-03T23:45:39.296Z,18.25
2022-11-03T23:48:10.125Z,13.25
2022-11-03T23:50:42.166Z,16.50
2022-11-03T23:53:12.563Z,17.00
2022-11-03T23:55:42.821Z,18.25
2022-11-03T23:58:13.436Z,18.00
